Latest Weather Observations for Bougainville Reef

IDQ60801

Issued at 10:32 pm EST Monday 27 March 2017 (issued every 30 minutes, with the page automatically refreshed every 10 minutes)

About weather observations | Map of weather stations | Latest weather observations for QLD | Other Formats
Station Details ID: 200840 Name: BOUGAINVILLE REEF Lat: -15.49 Lon: 147.12 Height: 0.0 m
Data from the previous 72 hours. | See also: Recent months for locations in Queensland
Date/Time
EST
Temp
°C
App
Temp
°C
Dew
Point
°C
Rel
Hum
%
Delta-T
°C
Wind Press
QNH
hPa
Press
MSL
hPa
Rain since
9am
mm
Dir  Spd
km/h
Gust
km/h
Spd
kts
Gust
kts
27/10:30pm 29.6 - - - - NW 43 52 23 28 1006.2 - -
27/10:00pm 29.8 - - - - NW 39 46 21 25 1006.0 1005.9 -
27/09:30pm 29.8 - - - - NW 39 44 21 24 1005.9 - -
27/09:00pm 29.7 - - - - NW 35 41 19 22 1005.5 1005.4 -
27/08:30pm 29.7 - - - - NW 33 39 18 21 1005.2 - -
27/08:00pm 29.8 - - - - NW 35 43 19 23 1005.1 1004.9 -
27/07:30pm 29.9 - - - - WNW 37 43 20 23 1004.8 - -
27/07:00pm 29.9 - - - - NW 39 43 21 23 1004.7 1004.7 -
27/06:30pm 29.9 - - - - NW 35 39 19 21 1004.7 - -
27/06:00pm 30.1 - - - - NW 30 35 16 19 1004.6 1004.5 -
27/05:30pm 30.3 - - - - NW 30 35 16 19 1004.2 - -
27/05:00pm 30.6 - - - - NW 32 33 17 18 1004.1 1004.2 -
27/04:30pm 30.3 - - - - NW 33 37 18 20 1003.9 - -
27/04:00pm 29.9 - - - - WNW 35 39 19 21 1003.8 1003.8 -
27/03:30pm 29.9 - - - - WNW 37 41 20 22 1003.7 - -
27/03:00pm 29.7 - - - - WNW 37 43 20 23 1003.7 1003.6 -
27/02:30pm 29.6 - - - - WNW 39 44 21 24 1003.7 - -
27/02:00pm 29.5 - - - - WNW 41 46 22 25 1004.1 1004.2 -
27/01:30pm 29.4 - - - - WNW 41 46 22 25 1004.5 - -
27/01:00pm 29.4 - - - - WNW 43 46 23 25 1005.2 1005.2 -
27/12:30pm 29.4 - - - - WNW 41 46 22 25 1005.5 - -
27/12:00pm 29.4 - - - - WNW 39 46 21 25 1006.5 1006.8 -
27/11:30am 29.5 - - - - WNW 37 43 20 23 1007.0 - -
27/11:00am 29.5 - - - - W 39 43 21 23 1007.2 1007.3 -
27/10:30am 29.4 - - - - W 37 43 20 23 1007.4 - -
27/10:00am 29.3 - - - - W 43 48 23 26 1007.6 1007.5 -
27/09:30am 29.3 - - - - W 39 46 21 25 1007.7 - -
27/09:00am 29.3 - - - - WNW 44 48 24 26 1008.0 1007.8 -
27/08:30am 29.2 - - - - WNW 46 54 25 29 1007.5 - -
27/08:00am 29.5 - - - - WNW 43 52 23 28 1007.5 1007.3 -
27/07:30am 29.5 - - - - WNW 46 52 25 28 1006.9 - -
27/07:00am 29.6 - - - - WNW 43 50 23 27 1007.3 1007.0 -
27/06:30am 29.4 - - - - WNW 41 48 22 26 1006.7 - -
27/06:00am 29.5 - - - - WNW 44 52 24 28 1006.2 1006.0 -
27/05:30am 29.6 - - - - WNW 44 52 24 28 1005.6 - -
27/05:00am 29.5 - - - - WNW 41 48 22 26 1005.8 1005.8 -
27/04:30am 29.4 - - - - WNW 41 46 22 25 1006.0 - -
27/04:00am 29.3 - - - - WNW 37 43 20 23 1006.2 1006.2 -
27/03:30am 29.6 - - - - WNW 39 43 21 23 1006.4 - -
27/03:00am 29.6 - - - - WNW 33 41 18 22 1006.5 1006.5 -
27/02:30am 29.5 - - - - WNW 35 39 19 21 1006.5 - -
27/02:00am 29.3 - - - - NW 35 41 19 22 1006.7 1006.7 -
27/01:30am 29.4 - - - - NW 35 39 19 21 1006.8 - -
27/01:00am 29.3 - - - - NW 32 37 17 20 1007.2 1007.3 -
27/12:30am 29.4 - - - - NW 30 33 16 18 1007.6 - -
27/12:00am 29.5 - - - - NW 30 32 16 17 1008.2 1008.3 -
 
Date/Time
EST
Temp
°C
App
Temp
°C
Dew
Point
°C
Rel
Hum
%
Delta-T
°C
Wind Press
QNH
hPa
Press
MSL
hPa
Rain since
9am
mm
Dir  Spd
km/h
Gust
km/h
Spd
kts
Gust
kts
26/11:30pm 29.7 - - - - NW 28 32 15 17 1008.6 - -
26/11:00pm 29.8 - - - - WNW 22 28 12 15 1008.4 1008.5 -
26/10:30pm 29.8 - - - - W 22 24 12 13 1008.7 - -
26/10:00pm 29.8 - - - - W 20 24 11 13 1008.7 1008.8 -
26/09:30pm 29.7 - - - - W 20 24 11 13 1008.8 - -
26/09:00pm 29.6 - - - - W 20 20 11 11 1008.6 1008.4 -
26/08:30pm 29.7 - - - - WNW 20 22 11 12 1008.2 - -
26/08:00pm 29.7 - - - - W 20 20 11 11 1007.7 1007.6 -
26/07:30pm 29.6 - - - - W 19 20 10 11 1007.4 - -
26/07:00pm 29.4 - - - - W 19 20 10 11 1006.8 1006.7 -
26/06:30pm 29.4 - - - - WSW 19 20 10 11 1006.6 - -
26/06:00pm 29.2 - - - - SW 20 22 11 12 1006.3 1006.1 -
26/05:30pm 29.3 - - - - WSW 20 24 11 13 1005.7 - -
26/05:00pm 29.3 - - - - WSW 22 26 12 14 1005.6 1005.5 -
26/04:30pm 29.5 - - - - SW 24 28 13 15 1005.4 - -
26/04:00pm 29.5 - - - - WSW 24 28 13 15 1005.3 1005.3 -
26/03:30pm 29.7 - - - - SW 28 30 15 16 1005.4 - -
26/03:00pm 29.5 - - - - SW 30 33 16 18 1005.3 1005.2 -
26/02:30pm 29.4 - - - - SW 30 35 16 19 1005.1 - -
26/02:00pm 29.5 - - - - WSW 32 35 17 19 1005.2 1005.2 -
26/01:30pm 29.4 - - - - WSW 30 33 16 18 1005.6 - -
26/01:00pm 29.3 - - - - WSW 28 33 15 18 1006.2 1006.5 -
26/12:30pm 29.5 - - - - WSW 28 33 15 18 1006.9 - -
26/12:00pm 29.6 - - - - SW 26 30 14 16 1007.5 1007.8 -
26/11:30am 29.9 - - - - SW 24 30 13 16 1008.2 - -
26/11:00am 29.7 - - - - SW 26 32 14 17 1008.4 1008.5 -
26/10:30am 29.6 - - - - SW 26 32 14 17 1008.7 - -
26/10:00am 29.6 - - - - SW 28 32 15 17 1008.8 1008.8 -
26/09:30am 29.5 - - - - SW 30 33 16 18 1008.8 - -
26/09:00am 29.5 - - - - SW 30 33 16 18 1009.0 1008.8 -
26/08:30am 29.4 - - - - SW 32 35 17 19 1008.6 - -
26/08:00am 29.4 - - - - SSW 33 39 18 21 1008.2 1008.0 -
26/07:30am 29.4 - - - - SSW 32 39 17 21 1007.7 - -
26/07:00am 29.3 - - - - SSW 35 39 19 21 1007.3 1007.3 -
26/06:30am 29.2 - - - - SSW 33 37 18 20 1007.2 - -
26/06:00am 29.2 - - - - S 33 37 18 20 1006.6 1006.5 -
26/05:30am 29.1 - - - - SSW 32 39 17 21 1006.5 - -
26/05:00am 29.1 - - - - SSW 32 43 17 23 1006.5 1006.5 -
26/04:30am 29.0 - - - - S 33 39 18 21 1006.4 - -
26/04:00am 27.5 - - - - SSW 20 24 11 13 1006.3 1006.4 -
26/03:30am 27.3 - - - - SSW 26 28 14 15 1006.4 - -
26/03:00am 26.8 - - - - S 41 39 22 21 1006.6 1006.7 -
26/02:47am 26.5 - - - - S 46 65 25 35 1006.8 - -
26/02:37am 26.9 - - - - S 56 65 30 35 1006.5 - -
26/02:32am 28.9 - - - - S 33 56 18 30 1006.7 - -
26/02:30am 29.0 - - - - S 32 37 17 20 1006.7 - -
26/02:00am 29.0 - - - - S 35 37 19 20 1006.9 1007.0 -
26/01:30am 29.2 - - - - S 35 43 19 23 1007.1 - -
26/01:00am 28.9 - - - - S 39 44 21 24 1007.3 1007.1 -
26/12:30am 29.0 - - - - S 37 44 20 24 1007.2 - -
26/12:00am 29.1 - - - - S 37 39 20 21 1007.5 1007.6 -
 
Date/Time
EST
Temp
°C
App
Temp
°C
Dew
Point
°C
Rel
Hum
%
Delta-T
°C
Wind Press
QNH
hPa
Press
MSL
hPa
Rain since
9am
mm
Dir  Spd
km/h
Gust
km/h
Spd
kts
Gust
kts
25/11:30pm 29.3 - - - - SSE 43 48 23 26 1007.7 - -
25/11:00pm 29.3 - - - - SSE 41 52 22 28 1008.2 1008.3 -
25/10:30pm 29.2 - - - - SSE 35 41 19 22 1008.4 - -
25/10:00pm 29.2 - - - - S 39 44 21 24 1008.4 1008.4 -
25/09:30pm 29.5 - - - - S 35 41 19 22 1008.3 - -
25/09:00pm 29.5 - - - - S 33 39 18 21 1008.1 1008.1 -
25/08:30pm 29.6 - - - - S 32 39 17 21 1008.1 - -
25/08:00pm 29.5 - - - - S 28 39 15 21 1008.1 1008.1 -
25/07:30pm 29.2 - - - - SSE 26 32 14 17 1008.0 - -
25/07:00pm 29.6 - - - - S 30 33 16 18 1007.7 1007.6 -
25/06:30pm 29.3 - - - - SSE 32 39 17 21 1007.3 - -
25/06:00pm 28.6 - - - - SSE 30 41 16 22 1006.9 1006.9 -
25/05:39pm 28.4 - - - - S 30 48 16 26 1006.7 - -
25/05:30pm 29.3 - - - - S 32 37 17 20 1006.7 - -
25/05:00pm 28.1 - - - - SSW 28 35 15 19 1006.4 1006.3 -
25/04:30pm 28.2 - - - - SSW 33 41 18 22 1006.1 - -
25/04:18pm 28.9 - - - - S 33 35 18 19 1006.1 - -
25/04:06pm 26.3 - - - - SE 43 72 23 39 1006.0 - -
25/04:03pm 28.4 - - - - S 39 72 21 39 1005.8 - -
25/04:00pm 29.4 - - - - S 30 43 16 23 1005.9 1005.9 -
25/03:30pm 29.4 - - - - S 33 39 18 21 1005.7 - -
25/03:00pm 29.3 - - - - S 35 43 19 23 1005.7 1005.7 -
25/02:51pm 29.3 - - - - S 37 43 20 23 1005.7 - -
25/02:34pm 28.0 - - - - SSW 35 54 19 29 1005.9 - -
25/02:30pm 27.8 - - - - S 39 54 21 29 1006.0 - -
25/02:27pm 28.9 - - - - S 35 54 19 29 1005.9 - -
25/02:00pm 29.3 - - - - S 28 39 15 21 1006.0 1006.1 -
25/01:30pm 28.6 - - - - S 19 26 10 14 1006.2 - -
25/01:13pm 27.3 - - - - SSE 20 46 11 25 1006.6 - -
25/01:00pm 29.2 - - - - S 26 56 14 30 1006.6 1006.7 -
25/12:54pm 28.5 - - - - S 30 56 16 30 1006.7 - -
25/12:30pm 29.1 - - - - S 28 33 15 18 1006.9 - -
25/12:00pm 29.1 - - - - S 28 35 15 19 1007.5 1007.6 -
25/11:30am 28.8 - - - - S 30 35 16 19 1007.7 - -
25/11:00am 28.4 - - - - S 30 35 16 19 1008.2 1008.2 -
25/10:30am 27.6 - - - - S 28 33 15 18 1008.6 - -
25/10:17am 25.7 - - - - S 7 26 4 14 1008.7 - -
25/10:05am 25.1 - - - - SSE 50 70 27 38 1008.9 - -
25/10:04am 25.5 - - - - S 54 70 29 38 1008.8 - -
25/10:02am 27.2 - - - - SSW 30 70 16 38 1008.8 - -
25/10:00am 28.5 - - - - SSW 26 41 14 22 1008.7 1008.6 -
25/09:30am 28.9 - - - - SSW 22 26 12 14 1008.8 - -
25/09:00am 29.1 - - - - SSW 24 30 13 16 1008.6 1008.6 -
25/08:30am 28.9 - - - - SSW 26 32 14 17 1008.3 - -
25/08:00am 28.8 - - - - SSW 28 33 15 18 1007.9 1007.8 -
25/07:30am 28.7 - - - - S 28 33 15 18 1007.2 - -
25/07:00am 28.5 - - - - S 35 43 19 23 1006.4 1006.2 -
25/06:30am 28.2 - - - - S 41 46 22 25 1005.8 - -
25/06:00am 27.9 - - - - S 32 39 17 21 1005.4 1005.4 -
25/05:30am 27.8 - - - - S 30 35 16 19 1005.2 - -
25/05:00am 27.5 - - - - S 32 35 17 19 1005.4 1005.5 -
25/04:30am 27.5 - - - - S 33 39 18 21 1005.7 - -
25/04:00am 27.9 - - - - S 37 44 20 24 1005.9 1006.1 -
25/03:50am 27.9 - - - - S 37 43 20 23 1006.1 - -
25/03:30am 28.4 - - - - SSW 30 35 16 19 1006.3 - -
25/03:00am 28.1 - - - - SSW 28 30 15 16 1006.7 1006.8 -
25/02:30am 27.9 - - - - S 26 30 14 16 1007.0 - -
25/02:00am 27.8 - - - - SSW 19 26 10 14 1007.4 1007.5 -
25/01:30am 27.5 - - - - SSW 20 24 11 13 1007.7 - -
25/01:00am 26.7 - - - - S 30 32 16 17 1007.9 1008.1 -
25/12:30am 26.6 - - - - SSE 37 44 20 24 1008.3 - -
25/12:21am 26.9 - - - - S 35 44 19 24 1008.4 - -
25/12:00am 28.4 - - - - SSW 19 26 10 14 1008.5 1008.7 -
 
Date/Time
EST
Temp
°C
App
Temp
°C
Dew
Point
°C
Rel
Hum
%
Delta-T
°C
Wind Press
QNH
hPa
Press
MSL
hPa
Rain since
9am
mm
Dir  Spd
km/h
Gust
km/h
Spd
kts
Gust
kts
24/11:30pm 28.3 - - - - SSW 15 19 8 10 1008.7 - -
24/11:00pm 28.2 - - - - SSW 17 20 9 11 1009.1 1009.2 -

Other Formats:

Comma delimited format used in spreadsheet applications
http://www.bom.gov.au/fwo/IDQ60801/IDQ60801.95288.axf

JavaScript Object Notation format (JSON) in row-major order
http://www.bom.gov.au/fwo/IDQ60801/IDQ60801.95288.json